Time;durP1;ratioP1;P1;durP2;ratioP2;P2;SDS_P1;SDS_P2;PMS_P1;PMS_P2;Temp;Humidity;BMP_temperature;BMP_pressure;BME280_temperature;BME280_humidity;BME280_pressure;Samples;Min_cycle;Max_cycle;Signal;HPM_P1;HPM_P2
2023/10/29 00:01:12;;;;;;;2.97;1.48;;;12.20;99.90;;;;;;5000050;28;20077;-78
2023/10/29 00:03:39;;;;;;;4.45;2.08;;;12.20;99.90;;;;;;5051979;28;20037;-78
2023/10/29 00:06:06;;;;;;;3.78;1.73;;;12.20;99.90;;;;;;5009707;28;21104;-78
2023/10/29 00:08:32;;;;;;;3.40;1.83;;;12.30;99.90;;;;;;5005996;28;20037;-77
2023/10/29 00:10:59;;;;;;;3.13;1.75;;;12.30;99.90;;;;;;5023399;28;20041;-78
2023/10/29 00:13:25;;;;;;;2.45;1.90;;;12.30;99.90;;;;;;4990103;28;20491;-77
2023/10/29 00:15:52;;;;;;;3.15;1.45;;;12.30;99.90;;;;;;5000694;28;20381;-77
2023/10/29 00:18:18;;;;;;;3.72;1.75;;;12.30;99.90;;;;;;4996496;28;20041;-77
2023/10/29 00:20:45;;;;;;;2.60;1.20;;;12.30;99.90;;;;;;5015408;28;20033;-77
2023/10/29 00:23:11;;;;;;;2.35;1.40;;;12.30;99.90;;;;;;5015123;28;20041;-78
2023/10/29 00:25:38;;;;;;;2.65;1.33;;;12.30;99.90;;;;;;5014106;28;20034;-77
2023/10/29 00:28:04;;;;;;;3.28;1.13;;;12.30;99.90;;;;;;5013816;28;20037;-77
2023/10/29 00:30:30;;;;;;;5.03;1.60;;;12.40;99.90;;;;;;5014710;28;20029;-77
2023/10/29 00:32:57;;;;;;;1.48;1.00;;;12.40;99.90;;;;;;5015384;28;20419;-78
2023/10/29 00:35:23;;;;;;;3.75;1.10;;;12.40;99.90;;;;;;4998575;28;20030;-78
2023/10/29 00:37:49;;;;;;;2.30;1.05;;;12.40;99.90;;;;;;5014004;28;20364;-78
2023/10/29 00:40:15;;;;;;;3.25;1.30;;;12.40;99.90;;;;;;4997664;28;20375;-78
2023/10/29 00:42:43;;;;;;;3.42;1.33;;;12.40;99.90;;;;;;4998248;28;20132;-78
2023/10/29 00:45:09;;;;;;;2.90;1.13;;;12.40;99.90;;;;;;5013941;28;20452;-78
2023/10/29 00:47:37;;;;;;;2.53;0.90;;;12.40;99.90;;;;;;5030894;28;20028;-77
2023/10/29 00:50:04;;;;;;;3.05;1.25;;;12.40;99.90;;;;;;4996890;28;20049;-77
2023/10/29 00:52:31;;;;;;;3.67;1.40;;;12.40;99.90;;;;;;5013843;28;20317;-78
2023/10/29 00:54:57;;;;;;;1.40;0.90;;;12.40;99.90;;;;;;5045228;28;20463;-77
2023/10/29 00:57:24;;;;;;;2.63;0.90;;;12.40;99.90;;;;;;5015912;28;20636;-77
2023/10/29 00:59:51;;;;;;;1.83;0.70;;;12.40;99.90;;;;;;5013956;28;20029;-78
2023/10/29 01:02:19;;;;;;;2.03;1.00;;;12.40;99.90;;;;;;5016085;28;20499;-78
2023/10/29 01:04:46;;;;;;;2.38;0.82;;;12.40;99.90;;;;;;5014770;28;20048;-78
2023/10/29 01:07:12;;;;;;;2.83;0.90;;;12.40;99.90;;;;;;5001268;28;20034;-78
2023/10/29 01:09:40;;;;;;;2.55;1.00;;;12.40;99.90;;;;;;5001096;28;20053;-77
2023/10/29 01:12:15;;;;;;;2.42;1.17;;;12.40;99.90;;;;;;5018012;28;20028;-78
2023/10/29 01:14:42;;;;;;;1.60;0.90;;;12.40;99.90;;;;;;5016711;28;20033;-77
2023/10/29 01:17:08;;;;;;;3.20;1.23;;;12.40;99.90;;;;;;5000658;28;20021;-77
2023/10/29 01:19:34;;;;;;;3.75;1.75;;;12.40;99.90;;;;;;5016550;28;20033;-78
2023/10/29 01:22:02;;;;;;;4.15;0.95;;;12.40;99.90;;;;;;4983793;28;20049;-78
2023/10/29 01:24:29;;;;;;;1.77;0.98;;;12.40;99.90;;;;;;5017273;28;20030;-77
2023/10/29 01:26:55;;;;;;;2.55;1.02;;;12.50;99.90;;;;;;5018689;28;20387;-77
2023/10/29 01:29:22;;;;;;;2.50;0.90;;;12.40;99.90;;;;;;5031307;28;20033;-77
2023/10/29 01:31:49;;;;;;;2.17;1.00;;;12.50;99.90;;;;;;5017842;28;20028;-77
2023/10/29 01:34:17;;;;;;;3.75;1.02;;;12.50;99.90;;;;;;5001260;28;20040;-78
2023/10/29 01:36:43;;;;;;;2.15;1.20;;;12.50;99.90;;;;;;5016532;28;20484;-77
2023/10/29 01:39:09;;;;;;;2.63;1.23;;;12.50;99.90;;;;;;4999328;28;20029;-78
2023/10/29 01:41:36;;;;;;;2.10;0.98;;;12.50;99.90;;;;;;5017073;28;20060;-77
2023/10/29 01:44:04;;;;;;;4.57;1.00;;;12.50;99.90;;;;;;5030410;28;20041;-77
2023/10/29 01:46:30;;;;;;;3.70;1.38;;;12.50;99.90;;;;;;5019014;28;20052;-77
2023/10/29 01:48:57;;;;;;;2.95;1.20;;;12.50;99.90;;;;;;5019452;28;20025;-78
2023/10/29 01:51:23;;;;;;;2.08;0.93;;;12.50;99.90;;;;;;4988074;28;20503;-78
2023/10/29 01:53:49;;;;;;;1.75;0.98;;;12.50;99.90;;;;;;5019727;28;20033;-78
2023/10/29 01:56:15;;;;;;;2.53;1.15;;;12.50;99.90;;;;;;5003310;28;20370;-77
2023/10/29 01:58:42;;;;;;;2.42;1.10;;;12.50;99.90;;;;;;5003507;28;20029;-77
2023/10/29 02:01:11;;;;;;;2.45;1.35;;;12.50;99.90;;;;;;5000501;28;20496;-77
2023/10/29 02:03:38;;;;;;;1.85;0.90;;;12.50;99.90;;;;;;5018138;28;20048;-78
2023/10/29 02:06:19;;;;;;;2.40;0.77;;;12.60;99.90;;;;;;5000760;28;20650;-77
2023/10/29 02:08:46;;;;;;;2.72;1.02;;;12.60;99.90;;;;;;4983400;28;20045;-77
2023/10/29 02:11:14;;;;;;;1.58;0.95;;;12.50;99.90;;;;;;4999743;28;20576;-77
2023/10/29 02:13:41;;;;;;;2.08;1.13;;;12.50;99.90;;;;;;5016282;28;20543;-77
2023/10/29 02:16:09;;;;;;;2.88;0.93;;;12.50;99.90;;;;;;5011215;28;20390;-77
2023/10/29 02:18:36;;;;;;;4.15;1.05;;;12.50;99.90;;;;;;5014959;28;20368;-78
2023/10/29 02:21:02;;;;;;;3.28;1.02;;;12.50;99.90;;;;;;5027270;28;20033;-77
2023/10/29 02:23:29;;;;;;;2.35;0.95;;;12.50;99.90;;;;;;4998633;28;20046;-77
2023/10/29 02:25:55;;;;;;;2.75;0.85;;;12.60;99.90;;;;;;5016440;28;20049;-78
2023/10/29 02:28:23;;;;;;;5.13;1.20;;;12.60;99.90;;;;;;4999179;28;20029;-77
2023/10/29 02:30:50;;;;;;;2.75;0.88;;;12.60;99.90;;;;;;4981091;28;20040;-77
2023/10/29 02:33:16;;;;;;;2.83;1.05;;;12.60;99.90;;;;;;5017408;28;20364;-77
2023/10/29 02:35:43;;;;;;;2.97;1.23;;;12.60;99.90;;;;;;5017311;28;20040;-78
2023/10/29 02:38:09;;;;;;;2.65;0.90;;;12.70;99.90;;;;;;5014854;28;20022;-77
2023/10/29 02:40:35;;;;;;;2.38;1.00;;;12.70;99.90;;;;;;5011166;28;20478;-77
2023/10/29 02:43:03;;;;;;;3.80;1.38;;;12.70;99.90;;;;;;4998674;28;21048;-78
2023/10/29 02:45:31;;;;;;;2.85;1.00;;;12.70;99.90;;;;;;4998973;28;20042;-77
2023/10/29 02:47:58;;;;;;;2.60;0.98;;;12.80;99.90;;;;;;4997562;28;21039;-77
2023/10/29 02:50:25;;;;;;;2.47;1.20;;;12.80;99.90;;;;;;5029405;28;20033;-77
2023/10/29 02:52:51;;;;;;;3.17;0.90;;;12.80;99.90;;;;;;5017222;28;20392;-79
2023/10/29 02:55:17;;;;;;;3.38;1.13;;;12.80;99.90;;;;;;4992533;28;20042;-77
2023/10/29 02:57:44;;;;;;;3.42;1.13;;;12.90;99.90;;;;;;5016903;28;20038;-79
2023/10/29 03:00:12;;;;;;;3.97;1.00;;;12.90;99.90;;;;;;5013035;28;20593;-78
2023/10/29 03:02:39;;;;;;;3.10;0.98;;;12.90;99.90;;;;;;4981456;28;20029;-78
2023/10/29 03:05:10;;;;;;;2.80;1.05;;;12.90;99.90;;;;;;5000107;28;20041;-79
2023/10/29 03:07:36;;;;;;;3.70;1.40;;;12.90;99.90;;;;;;5016708;28;20041;-78
2023/10/29 03:10:04;;;;;;;2.42;0.93;;;12.90;99.90;;;;;;5030335;28;20044;-77
2023/10/29 03:12:32;;;;;;;2.53;1.00;;;12.80;99.90;;;;;;5008522;28;20021;-78
2023/10/29 03:15:00;;;;;;;2.25;0.98;;;12.80;99.90;;;;;;5016006;28;20033;-78
2023/10/29 03:17:26;;;;;;;1.85;0.70;;;12.80;99.90;;;;;;5016238;28;20045;-79
2023/10/29 03:19:55;;;;;;;2.00;0.98;;;12.80;99.90;;;;;;5015472;28;20439;-78
2023/10/29 03:22:21;;;;;;;2.38;0.90;;;12.70;99.90;;;;;;4998435;28;20030;-79
2023/10/29 03:24:47;;;;;;;2.80;0.75;;;12.70;99.90;;;;;;5016051;28;20044;-78
2023/10/29 03:27:14;;;;;;;3.10;0.80;;;12.70;99.90;;;;;;4982852;28;20037;-79
2023/10/29 03:29:40;;;;;;;2.58;0.95;;;12.80;99.90;;;;;;5016251;28;20033;-78
2023/10/29 03:32:06;;;;;;;1.55;0.80;;;12.80;99.90;;;;;;5015834;28;20040;-79
2023/10/29 03:34:33;;;;;;;4.47;0.70;;;12.80;99.90;;;;;;5015088;28;20033;-78
2023/10/29 03:36:59;;;;;;;2.00;0.70;;;12.80;99.90;;;;;;4999232;28;20392;-79
2023/10/29 03:39:26;;;;;;;1.45;0.82;;;12.80;99.90;;;;;;5014746;28;20045;-79
2023/10/29 03:41:52;;;;;;;1.33;0.50;;;12.80;99.90;;;;;;5015493;28;20380;-79
2023/10/29 03:44:18;;;;;;;3.30;0.75;;;12.70;99.90;;;;;;4982570;28;20033;-78
2023/10/29 03:46:50;;;;;;;3.10;0.63;;;12.70;99.90;;;;;;4997647;28;20396;-78
2023/10/29 03:49:18;;;;;;;1.50;0.60;;;12.70;99.90;;;;;;4998529;28;20535;-79
2023/10/29 03:51:46;;;;;;;1.77;0.47;;;12.80;99.90;;;;;;4999582;28;20408;-78
2023/10/29 03:54:13;;;;;;;1.48;0.60;;;12.80;99.90;;;;;;4998825;28;20037;-78
2023/10/29 03:56:40;;;;;;;1.70;0.55;;;12.80;99.90;;;;;;5016574;28;20120;-78
2023/10/29 03:59:06;;;;;;;1.25;0.50;;;12.80;99.90;;;;;;5034028;28;20029;-81
2023/10/29 04:01:33;;;;;;;2.28;0.70;;;12.80;99.90;;;;;;4999708;28;20201;-79
2023/10/29 04:03:59;;;;;;;1.00;0.60;;;12.90;99.90;;;;;;5017546;28;20044;-78
2023/10/29 04:06:25;;;;;;;4.20;0.60;;;12.90;99.90;;;;;;5011136;28;20052;-80
2023/10/29 04:08:52;;;;;;;2.22;0.63;;;12.80;99.90;;;;;;5018255;28;20105;-78
2023/10/29 04:11:18;;;;;;;2.92;0.52;;;12.80;99.90;;;;;;4998105;28;20544;-79
2023/10/29 04:13:45;;;;;;;3.15;0.52;;;12.70;99.90;;;;;;5032999;28;20040;-79
2023/10/29 04:16:12;;;;;;;2.20;0.50;;;12.70;99.90;;;;;;5017807;28;20021;-79
2023/10/29 04:18:38;;;;;;;1.77;0.40;;;12.70;99.90;;;;;;5017432;28;20025;-79
2023/10/29 04:21:07;;;;;;;1.27;0.40;;;12.70;99.90;;;;;;4999664;28;20029;-78
2023/10/29 04:23:36;;;;;;;0.90;0.30;;;12.60;99.90;;;;;;5017623;28;20045;-79
2023/10/29 04:26:02;;;;;;;2.33;0.63;;;12.60;99.90;;;;;;5018928;28;20484;-79
2023/10/29 04:28:29;;;;;;;2.63;0.40;;;12.60;99.90;;;;;;5017825;28;20097;-79
2023/10/29 04:30:55;;;;;;;1.30;0.52;;;12.50;99.90;;;;;;5015419;28;20036;-78
2023/10/29 04:33:22;;;;;;;1.65;0.50;;;12.50;99.90;;;;;;4996160;28;20029;-77
2023/10/29 04:35:48;;;;;;;2.00;0.45;;;12.50;99.90;;;;;;5015423;28;20060;-79
2023/10/29 04:38:14;;;;;;;1.48;0.50;;;12.50;99.90;;;;;;5016085;28;20129;-78
2023/10/29 04:40:41;;;;;;;4.53;0.40;;;12.50;99.90;;;;;;5016254;28;20096;-78
2023/10/29 04:43:07;;;;;;;1.95;0.40;;;12.50;99.90;;;;;;5014218;28;20364;-79
2023/10/29 04:45:33;;;;;;;1.67;0.50;;;12.40;99.90;;;;;;4997787;28;20037;-77
2023/10/29 04:47:59;;;;;;;0.88;0.40;;;12.40;99.90;;;;;;4981283;28;22352;-78
2023/10/29 04:50:26;;;;;;;1.30;0.40;;;12.50;99.90;;;;;;5014942;28;20057;-78
2023/10/29 04:52:52;;;;;;;1.95;0.43;;;12.50;99.90;;;;;;4997295;28;20033;-80
2023/10/29 04:55:18;;;;;;;1.67;0.60;;;12.60;99.90;;;;;;5016290;28;20033;-79
2023/10/29 04:57:45;;;;;;;1.23;0.50;;;12.60;99.90;;;;;;5015412;28;20022;-77
2023/10/29 05:00:12;;;;;;;1.83;0.55;;;12.70;99.90;;;;;;5016160;28;20029;-79
2023/10/29 05:02:38;;;;;;;3.38;0.73;;;12.70;99.90;;;;;;5029815;28;20026;-78
2023/10/29 05:05:06;;;;;;;2.20;0.60;;;12.70;99.90;;;;;;5031057;28;20025;-79
2023/10/29 05:07:33;;;;;;;2.95;0.73;;;12.80;99.90;;;;;;5042651;28;21232;-79
2023/10/29 05:09:59;;;;;;;1.98;0.50;;;12.70;99.90;;;;;;5014358;28;20480;-78
2023/10/29 05:12:26;;;;;;;5.38;1.30;;;12.70;99.90;;;;;;5014730;28;20025;-78
2023/10/29 05:14:52;;;;;;;1.98;0.50;;;12.80;99.90;;;;;;5014625;28;20033;-76
2023/10/29 05:17:18;;;;;;;1.95;0.60;;;12.70;99.90;;;;;;5028433;28;20041;-74
2023/10/29 05:19:45;;;;;;;2.50;0.73;;;12.70;99.90;;;;;;5018569;28;20037;-75
2023/10/29 05:22:11;;;;;;;2.30;0.40;;;12.70;99.90;;;;;;5002332;28;20034;-76
2023/10/29 05:24:37;;;;;;;2.25;0.50;;;12.70;99.90;;;;;;5019838;28;20372;-75
2023/10/29 05:27:04;;;;;;;1.80;0.70;;;12.60;99.90;;;;;;5001586;28;20342;-78
2023/10/29 05:29:32;;;;;;;4.78;0.60;;;12.60;99.90;;;;;;5018272;28;20036;-76
2023/10/29 05:31:58;;;;;;;3.92;0.60;;;12.50;99.90;;;;;;5002596;28;20040;-77
2023/10/29 05:34:24;;;;;;;5.07;1.48;;;12.50;99.90;;;;;;5018111;28;20045;-76
2023/10/29 05:36:51;;;;;;;0.95;0.50;;;12.50;99.90;;;;;;5001509;28;20052;-76
2023/10/29 05:39:17;;;;;;;2.20;0.88;;;12.50;99.90;;;;;;5000992;28;20037;-78
2023/10/29 05:41:43;;;;;;;1.90;0.80;;;12.50;99.90;;;;;;5018220;28;20045;-77
2023/10/29 05:44:10;;;;;;;1.55;0.50;;;12.50;99.90;;;;;;5034921;28;20044;-78
2023/10/29 05:46:36;;;;;;;1.27;0.50;;;12.40;99.90;;;;;;5019396;28;20454;-77
2023/10/29 05:49:02;;;;;;;2.55;0.50;;;12.40;99.90;;;;;;5013850;28;20366;-78
2023/10/29 05:51:28;;;;;;;2.90;0.70;;;12.40;99.90;;;;;;5019477;28;20033;-77
2023/10/29 05:53:55;;;;;;;2.58;0.60;;;12.40;99.90;;;;;;4985595;28;20053;-78
2023/10/29 05:56:21;;;;;;;1.55;0.52;;;12.40;99.90;;;;;;5003145;28;20059;-77
2023/10/29 05:58:48;;;;;;;3.95;0.60;;;12.40;99.90;;;;;;5018521;28;20444;-78
2023/10/29 06:01:14;;;;;;;3.20;0.70;;;12.30;99.90;;;;;;5018540;28;20026;-75
2023/10/29 06:03:41;;;;;;;3.60;0.63;;;12.40;99.90;;;;;;5002764;28;20128;-77
2023/10/29 06:06:07;;;;;;;2.90;0.80;;;12.40;99.90;;;;;;5001930;28;20037;-77
2023/10/29 06:08:34;;;;;;;3.78;0.50;;;12.30;99.90;;;;;;5017336;28;20041;-78
2023/10/29 06:11:00;;;;;;;2.28;0.40;;;12.30;99.90;;;;;;5016106;28;20036;-78
2023/10/29 06:13:26;;;;;;;2.05;0.50;;;12.30;99.90;;;;;;5049544;28;20427;-77
2023/10/29 06:15:52;;;;;;;2.80;0.38;;;12.20;99.90;;;;;;5017014;28;20030;-75
2023/10/29 06:18:19;;;;;;;2.50;0.70;;;12.10;99.90;;;;;;5016801;28;20045;-78
2023/10/29 06:20:46;;;;;;;3.83;0.70;;;12.10;99.90;;;;;;5014663;28;20029;-80
2023/10/29 06:23:12;;;;;;;3.22;1.00;;;12.10;99.90;;;;;;4998813;28;20052;-79
2023/10/29 06:25:38;;;;;;;2.22;0.80;;;12.00;99.90;;;;;;4998756;28;20025;-79
2023/10/29 06:28:07;;;;;;;1.25;0.60;;;12.10;99.90;;;;;;5031395;28;20037;-79
2023/10/29 06:30:33;;;;;;;3.17;0.50;;;12.10;99.90;;;;;;5031953;28;20339;-78
2023/10/29 06:33:01;;;;;;;4.72;0.50;;;12.20;99.90;;;;;;5016105;28;20033;-77
2023/10/29 06:35:28;;;;;;;2.55;0.60;;;12.10;99.90;;;;;;5016574;28;20386;-79
2023/10/29 06:37:54;;;;;;;2.10;0.40;;;12.10;99.90;;;;;;5000063;28;20029;-79
2023/10/29 06:40:21;;;;;;;3.05;0.40;;;12.10;99.90;;;;;;5015874;28;20044;-77
2023/10/29 06:42:47;;;;;;;2.38;0.40;;;12.00;99.90;;;;;;5015596;28;20041;-79
2023/10/29 06:45:14;;;;;;;2.33;0.40;;;12.00;99.90;;;;;;4995788;28;20033;-79
2023/10/29 06:47:40;;;;;;;2.88;0.52;;;12.00;99.90;;;;;;4999092;28;20030;-79
2023/10/29 06:50:07;;;;;;;2.55;0.82;;;12.00;99.90;;;;;;5016817;28;20026;-76
2023/10/29 06:52:33;;;;;;;3.25;0.80;;;11.90;99.90;;;;;;5032746;28;20570;-76
2023/10/29 06:54:59;;;;;;;4.10;0.50;;;11.90;99.90;;;;;;5016640;28;20037;-77
2023/10/29 06:57:25;;;;;;;4.10;0.50;;;11.90;99.90;;;;;;5016601;28;20425;-79
2023/10/29 06:59:52;;;;;;;6.07;0.60;;;11.90;99.90;;;;;;5017472;28;20033;-79
2023/10/29 07:02:18;;;;;;;6.55;3.60;;;11.90;99.90;;;;;;4999481;28;20135;-81
2023/10/29 07:04:45;;;;;;;5.45;1.15;;;11.90;99.90;;;;;;5000146;28;20021;-79
2023/10/29 07:07:13;;;;;;;4.32;0.60;;;11.80;99.90;;;;;;5015683;28;20045;-78
2023/10/29 07:09:39;;;;;;;2.33;0.30;;;11.80;99.90;;;;;;5031707;28;20026;-78
2023/10/29 07:12:08;;;;;;;2.03;0.50;;;11.80;99.90;;;;;;5045251;28;20036;-79
2023/10/29 07:14:34;;;;;;;5.28;0.40;;;11.70;99.90;;;;;;5014330;28;20042;-79
2023/10/29 07:17:00;;;;;;;2.97;0.50;;;11.80;99.90;;;;;;5015476;28;20052;-78
2023/10/29 07:19:27;;;;;;;2.70;0.30;;;11.90;99.90;;;;;;5014969;28;20032;-78
2023/10/29 07:21:53;;;;;;;5.50;0.70;;;11.90;99.90;;;;;;5015010;28;20033;-78
2023/10/29 07:24:20;;;;;;;3.95;0.60;;;12.00;99.90;;;;;;5015748;28;20081;-79
2023/10/29 07:26:46;;;;;;;3.67;0.40;;;12.10;99.90;;;;;;5030070;28;20036;-78
2023/10/29 07:29:13;;;;;;;6.18;0.60;;;12.30;99.90;;;;;;4995144;28;20715;-78
2023/10/29 07:31:39;;;;;;;4.05;0.52;;;12.40;99.90;;;;;;5016323;28;20037;-77
2023/10/29 07:34:05;;;;;;;5.50;0.60;;;12.50;99.90;;;;;;4999301;28;21905;-78
2023/10/29 07:36:32;;;;;;;5.55;0.70;;;12.70;99.90;;;;;;5016637;28;20037;-80
2023/10/29 07:38:58;;;;;;;5.03;0.82;;;12.70;99.90;;;;;;5015500;28;20045;-78
2023/10/29 07:41:24;;;;;;;5.15;0.82;;;12.70;99.90;;;;;;5012677;28;20030;-77
2023/10/29 07:43:51;;;;;;;9.32;4.93;;;12.80;99.90;;;;;;5013327;28;20033;-77
2023/10/29 07:46:17;;;;;;;8.50;1.65;;;12.70;99.90;;;;;;4997610;28;20033;-79
2023/10/29 07:48:43;;;;;;;5.28;1.55;;;12.70;99.90;;;;;;5027272;28;20037;-80
2023/10/29 07:51:10;;;;;;;4.43;0.88;;;12.70;99.90;;;;;;4997551;28;20044;-79
2023/10/29 07:53:36;;;;;;;5.85;1.05;;;12.70;99.90;;;;;;4998644;28;20033;-80
2023/10/29 07:56:13;;;;;;;4.00;0.75;;;12.70;99.90;;;;;;5010018;28;20034;-79
2023/10/29 07:58:40;;;;;;;8.00;0.88;;;12.70;99.90;;;;;;5014333;28;20022;-79
2023/10/29 08:01:14;;;;;;;5.78;0.70;;;12.70;99.90;;;;;;5028653;28;20048;-79
2023/10/29 08:03:42;;;;;;;5.10;0.77;;;12.70;99.90;;;;;;5027268;28;20838;-79
2023/10/29 08:06:10;;;;;;;6.22;0.88;;;12.70;99.90;;;;;;5028715;28;21234;-79
2023/10/29 08:08:36;;;;;;;3.72;0.80;;;12.70;99.90;;;;;;4996175;28;20415;-80
2023/10/29 08:11:03;;;;;;;4.90;0.80;;;12.70;99.90;;;;;;5030755;28;20026;-79
2023/10/29 08:13:29;;;;;;;7.10;0.80;;;12.60;99.90;;;;;;4995690;28;20580;-80
2023/10/29 08:15:57;;;;;;;5.60;1.00;;;12.60;99.90;;;;;;4991789;28;20041;-80
2023/10/29 08:18:24;;;;;;;4.80;0.70;;;12.70;99.90;;;;;;5013682;28;20045;-79
2023/10/29 08:20:51;;;;;;;5.57;0.70;;;12.70;99.90;;;;;;5045081;28;20040;-79
2023/10/29 08:23:17;;;;;;;3.22;0.70;;;12.80;99.90;;;;;;5011305;28;20041;-80
2023/10/29 08:25:43;;;;;;;5.70;0.95;;;12.80;99.90;;;;;;4997321;28;20040;-80
2023/10/29 08:28:10;;;;;;;6.40;0.80;;;12.80;99.90;;;;;;5011507;28;20048;-81
2023/10/29 08:30:36;;;;;;;5.70;0.80;;;12.80;99.90;;;;;;4980130;28;20122;-81
2023/10/29 08:33:03;;;;;;;6.30;1.00;;;12.80;99.90;;;;;;4996526;28;20034;-79
2023/10/29 08:35:29;;;;;;;6.72;1.20;;;12.90;99.90;;;;;;4997549;28;20044;-80
2023/10/29 08:37:56;;;;;;;7.97;1.08;;;13.00;99.90;;;;;;4998089;28;20056;-80
2023/10/29 08:40:23;;;;;;;5.57;1.25;;;13.10;99.90;;;;;;5014856;28;20033;-80
2023/10/29 08:42:49;;;;;;;6.32;0.88;;;13.20;99.90;;;;;;5014948;28;20036;-79
2023/10/29 08:45:15;;;;;;;9.82;1.58;;;13.40;99.90;;;;;;5013378;28;20506;-80
2023/10/29 08:47:42;;;;;;;8.35;1.15;;;13.50;99.90;;;;;;4996152;28;20026;-80
2023/10/29 08:50:08;;;;;;;3.60;0.77;;;13.50;99.90;;;;;;4997132;28;20503;-80
2023/10/29 08:52:35;;;;;;;8.73;0.90;;;13.60;99.90;;;;;;5012520;28;20053;-78
2023/10/29 08:55:01;;;;;;;9.90;1.30;;;13.60;99.90;;;;;;5012603;28;20500;-81
2023/10/29 08:57:28;;;;;;;10.52;1.20;;;13.60;99.90;;;;;;5013691;28;20392;-81
2023/10/29 08:59:56;;;;;;;7.57;1.15;;;13.80;99.90;;;;;;5013695;28;20067;-80
2023/10/29 09:02:22;;;;;;;5.72;0.80;;;13.80;99.90;;;;;;5014648;28;20032;-81
2023/10/29 09:04:52;;;;;;;4.18;0.80;;;13.90;99.90;;;;;;4996620;28;20064;-79
2023/10/29 09:07:20;;;;;;;7.28;0.95;;;13.80;99.90;;;;;;5012624;28;20579;-80
2023/10/29 09:09:48;;;;;;;7.38;1.02;;;13.90;99.90;;;;;;5014931;28;20029;-85
2023/10/29 09:12:14;;;;;;;8.70;1.17;;;14.00;99.90;;;;;;4997608;28;21049;-78
2023/10/29 09:14:40;;;;;;;6.75;1.23;;;14.10;99.90;;;;;;5013575;28;20037;-79
2023/10/29 09:17:07;;;;;;;7.50;0.82;;;14.20;99.90;;;;;;5008640;28;20590;-80
2023/10/29 09:19:33;;;;;;;7.03;0.93;;;14.30;99.90;;;;;;4998469;28;20041;-80
2023/10/29 09:22:00;;;;;;;10.98;1.15;;;14.30;99.90;;;;;;5012394;28;20041;-77
2023/10/29 09:24:27;;;;;;;6.80;0.90;;;14.30;99.90;;;;;;4995982;28;20040;-80
2023/10/29 09:26:56;;;;;;;6.07;1.50;;;14.30;99.90;;;;;;5013238;28;20044;-84
2023/10/29 09:29:24;;;;;;;5.68;1.20;;;14.20;99.90;;;;;;5012323;28;20052;-80
2023/10/29 09:31:51;;;;;;;5.22;0.88;;;14.20;99.90;;;;;;5044046;28;20816;-81
2023/10/29 09:34:18;;;;;;;5.80;0.90;;;14.20;99.90;;;;;;5028027;28;20468;-82
2023/10/29 09:36:44;;;;;;;4.55;0.93;;;14.30;99.90;;;;;;5012668;28;20032;-79
2023/10/29 09:39:11;;;;;;;4.10;0.77;;;14.40;99.90;;;;;;4993497;28;20037;-77
2023/10/29 09:41:38;;;;;;;7.32;0.50;;;14.50;99.90;;;;;;5043647;28;20049;-77
2023/10/29 09:44:08;;;;;;;8.75;0.82;;;14.70;99.90;;;;;;5025855;28;20025;-80
2023/10/29 09:46:37;;;;;;;6.68;1.27;;;14.90;99.90;;;;;;5008187;28;20041;-80
2023/10/29 09:49:04;;;;;;;5.13;0.70;;;15.10;99.90;;;;;;4994454;28;20046;-78
2023/10/29 09:51:31;;;;;;;4.95;0.60;;;15.30;99.90;;;;;;5014273;28;20068;-80
2023/10/29 09:53:59;;;;;;;4.65;0.63;;;15.30;99.90;;;;;;4995538;28;20192;-78
2023/10/29 09:56:26;;;;;;;7.95;1.05;;;15.30;99.90;;;;;;5012305;28;20060;-81
2023/10/29 09:58:52;;;;;;;4.97;0.60;;;15.20;99.90;;;;;;4996424;28;20044;-81
2023/10/29 10:01:19;;;;;;;5.57;0.70;;;15.10;99.90;;;;;;4998108;28;20029;-78
2023/10/29 10:03:45;;;;;;;4.22;0.70;;;15.00;99.90;;;;;;5012112;28;20025;-79
2023/10/29 10:06:15;;;;;;;3.70;0.52;;;15.00;99.90;;;;;;4998019;28;20041;-80
2023/10/29 10:08:42;;;;;;;4.63;0.60;;;15.20;99.90;;;;;;5031070;28;20037;-79
2023/10/29 10:11:22;;;;;;;7.22;0.82;;;15.40;99.90;;;;;;5018446;28;20052;-80
2023/10/29 10:13:48;;;;;;;4.60;0.55;;;15.90;99.90;;;;;;5000973;28;20024;-80
2023/10/29 10:16:16;;;;;;;4.97;0.73;;;16.30;99.90;;;;;;4984716;28;20033;-79
2023/10/29 10:18:51;;;;;;;3.47;0.50;;;16.50;99.90;;;;;;5018443;28;20041;-79
2023/10/29 10:21:20;;;;;;;4.28;0.40;;;16.50;99.90;;;;;;4977305;28;20040;-80
2023/10/29 10:23:56;;;;;;;4.65;0.40;;;16.40;99.90;;;;;;5048112;28;20025;-80
2023/10/29 10:26:33;;;;;;;4.40;0.70;;;16.30;99.90;;;;;;5016740;28;20037;-81
2023/10/29 10:29:04;;;;;;;3.95;0.50;;;16.20;99.90;;;;;;5047925;28;20708;-81
2023/10/29 10:31:33;;;;;;;7.18;0.93;;;16.10;99.90;;;;;;5017954;28;20519;-81
2023/10/29 10:34:10;;;;;;;6.70;0.60;;;15.90;99.90;;;;;;4998371;28;20040;-80
2023/10/29 10:36:37;;;;;;;4.50;0.52;;;15.80;99.90;;;;;;5030221;28;20025;-80
2023/10/29 10:39:04;;;;;;;3.50;0.60;;;15.70;99.90;;;;;;5015734;28;20045;-80
2023/10/29 10:41:43;;;;;;;6.13;0.93;;;15.50;99.90;;;;;;5015399;28;20049;-80
2023/10/29 10:44:21;;;;;;;6.28;0.60;;;15.40;99.90;;;;;;5029263;28;20029;-79
2023/10/29 10:46:50;;;;;;;5.07;0.52;;;15.30;99.90;;;;;;5015782;28;20029;-80
2023/10/29 10:49:18;;;;;;;7.28;0.90;;;15.10;99.90;;;;;;4999661;28;20041;-81
2023/10/29 10:51:47;;;;;;;8.63;0.88;;;15.10;99.90;;;;;;5004052;28;20044;-80
2023/10/29 10:54:19;;;;;;;5.25;0.60;;;15.00;99.90;;;;;;5016501;28;20681;-79
2023/10/29 10:56:46;;;;;;;6.00;0.50;;;15.00;99.90;;;;;;5015342;28;20570;-78
2023/10/29 10:59:13;;;;;;;8.93;0.93;;;14.90;99.90;;;;;;5016732;28;20045;-79
2023/10/29 11:01:40;;;;;;;4.13;0.77;;;14.90;99.90;;;;;;5015363;28;20049;-78
2023/10/29 11:04:08;;;;;;;6.18;0.90;;;15.00;99.90;;;;;;5030945;28;20508;-78
2023/10/29 11:06:36;;;;;;;4.18;0.68;;;15.00;99.90;;;;;;5015023;28;20487;-80
2023/10/29 11:09:06;;;;;;;7.55;0.70;;;15.00;99.90;;;;;;5015109;28;20735;-78
2023/10/29 11:11:36;;;;;;;8.75;0.82;;;15.00;99.90;;;;;;5015958;28;20045;-79
2023/10/29 11:14:11;;;;;;;9.13;0.85;;;15.00;99.90;;;;;;5014824;28;20030;-78
2023/10/29 11:16:57;;;;;;;7.95;1.00;;;14.90;99.90;;;;;;5029757;28;20029;-78
2023/10/29 11:19:34;;;;;;;4.68;0.95;;;14.80;99.90;;;;;;5013449;28;20040;-80
2023/10/29 11:22:20;;;;;;;5.07;1.00;;;14.80;99.90;;;;;;5014495;28;20034;-81
2023/10/29 11:25:07;;;;;;;4.93;0.70;;;14.80;99.90;;;;;;4990825;28;20036;-81
2023/10/29 11:27:48;;;;;;;5.78;0.65;;;14.80;99.90;;;;;;5015822;28;20052;-81
2023/10/29 11:30:23;;;;;;;6.03;0.60;;;14.70;99.90;;;;;;5016011;28;20033;-81
2023/10/29 11:33:17;;;;;;;6.78;0.70;;;14.70;99.90;;;;;;5013974;28;20018;-82
2023/10/29 11:35:43;;;;;;;6.10;0.70;;;14.70;99.90;;;;;;5027326;28;20033;-81
2023/10/29 11:38:35;;;;;;;6.63;0.75;;;14.70;99.90;;;;;;4996767;28;20272;-81
2023/10/29 11:41:31;;;;;;;7.38;0.70;;;14.70;99.90;;;;;;4994721;28;20045;-82
2023/10/29 11:44:16;;;;;;;6.22;0.70;;;14.70;99.90;;;;;;5016040;28;20387;-82
2023/10/29 11:46:58;;;;;;;4.70;0.52;;;14.70;99.90;;;;;;4995692;28;20030;-82
2023/10/29 11:49:28;;;;;;;5.63;0.90;;;14.70;99.90;;;;;;4994359;28;20045;-81
2023/10/29 11:52:02;;;;;;;6.88;0.80;;;14.70;99.90;;;;;;5011122;28;20048;-82
2023/10/29 11:54:33;;;;;;;3.58;0.50;;;14.80;99.90;;;;;;4998033;28;20029;-82
2023/10/29 11:57:01;;;;;;;5.90;0.75;;;14.90;99.90;;;;;;4998266;28;20492;-81
2023/10/29 11:59:28;;;;;;;2.08;0.43;;;15.00;99.90;;;;;;4997600;28;20044;-81
2023/10/29 12:01:54;;;;;;;6.10;0.80;;;15.00;99.90;;;;;;4980959;28;20045;-82
2023/10/29 12:04:20;;;;;;;3.35;0.68;;;15.00;99.90;;;;;;5030492;28;20029;-81
2023/10/29 12:06:48;;;;;;;4.55;0.88;;;15.00;99.90;;;;;;5045786;28;20457;-81
2023/10/29 12:09:19;;;;;;;2.97;0.47;;;15.00;99.90;;;;;;5014520;28;20049;-81
2023/10/29 12:11:52;;;;;;;4.80;0.57;;;15.10;99.90;;;;;;5015015;28;20396;-81
2023/10/29 12:14:38;;;;;;;4.93;0.60;;;15.20;99.90;;;;;;5028072;28;20037;-83
2023/10/29 12:17:05;;;;;;;7.18;0.70;;;15.40;99.90;;;;;;4991007;28;20034;-82
2023/10/29 12:19:35;;;;;;;4.00;0.70;;;15.60;99.90;;;;;;5014351;28;20029;-81
2023/10/29 12:22:03;;;;;;;8.27;1.20;;;15.70;99.90;;;;;;4998472;28;20732;-81
2023/10/29 12:24:30;;;;;;;7.63;1.15;;;15.70;99.90;;;;;;4996637;28;20060;-82
2023/10/29 12:26:58;;;;;;;9.40;1.77;;;15.70;99.90;;;;;;4997339;28;20033;-82
2023/10/29 12:29:24;;;;;;;4.90;0.68;;;15.60;99.90;;;;;;4994745;28;20694;-85
2023/10/29 12:31:50;;;;;;;6.78;0.73;;;15.60;99.90;;;;;;5027331;28;20038;-80
2023/10/29 12:34:17;;;;;;;10.95;4.55;;;15.70;99.90;;;;;;4995427;28;20411;-79
2023/10/29 12:36:48;;;;;;;9.50;2.55;;;15.70;99.90;;;;;;5013178;28;20021;-80
2023/10/29 12:39:15;;;;;;;6.17;2.63;;;15.70;99.90;;;;;;5029168;28;20465;-79
2023/10/29 12:41:49;;;;;;;5.13;1.70;;;15.70;99.90;;;;;;5006216;28;20762;-82
2023/10/29 12:44:16;;;;;;;5.53;1.00;;;15.80;99.90;;;;;;5008654;28;20041;-79
2023/10/29 12:46:49;;;;;;;5.25;0.80;;;15.90;99.90;;;;;;5014442;28;20039;-79
2023/10/29 12:49:25;;;;;;;5.72;0.70;;;16.00;99.90;;;;;;5015996;28;20935;-80